createdAt,value
2016-11-23T00:00:57.702Z,23.13
2016-11-23T00:01:57.257Z,23.2
2016-11-23T00:02:57.265Z,23.16
2016-11-23T00:03:56.962Z,23.25
2016-11-23T00:04:57.301Z,23.31
2016-11-23T00:05:57.362Z,23.15
2016-11-23T00:06:57.393Z,23.1
2016-11-23T00:07:57.305Z,23.19
2016-11-23T00:08:57.305Z,23.13
2016-11-23T00:09:57.312Z,23.16
2016-11-23T00:10:57.319Z,23.23
2016-11-23T00:11:58.215Z,23.13
2016-11-23T00:12:57.685Z,23.13
2016-11-23T00:13:57.389Z,23.16
2016-11-23T00:14:57.662Z,23.13
2016-11-23T00:15:57.362Z,23.15
2016-11-23T00:16:57.363Z,23.16
2016-11-23T00:17:57.682Z,23.07
2016-11-23T00:18:57.066Z,23.1
2016-11-23T00:19:57.695Z,23.01
2016-11-23T00:20:57.494Z,23.01
2016-11-23T00:21:57.396Z,23.07
2016-11-23T00:22:58.567Z,23.07
2016-11-23T00:23:57.411Z,23.05
2016-11-23T00:24:57.558Z,23.02
2016-11-23T00:25:57.501Z,23.02
2016-11-23T00:26:57.807Z,23.07
2016-11-23T00:27:57.442Z,23.04
2016-11-23T00:28:57.809Z,23
2016-11-23T00:29:57.462Z,23
2016-11-23T00:30:57.460Z,23.1
2016-11-23T00:31:57.464Z,23.13
2016-11-23T00:32:57.477Z,23.1
2016-11-23T00:33:58.681Z,23.1
2016-11-23T00:34:57.802Z,23.13
2016-11-23T00:35:57.910Z,23.15
2016-11-23T00:36:57.814Z,23.17
2016-11-23T00:37:57.811Z,23.17
2016-11-23T00:38:57.517Z,23.15
2016-11-23T00:39:57.834Z,23.13
2016-11-23T00:40:57.264Z,23.04
2016-11-23T00:41:57.541Z,23.16
2016-11-23T00:42:57.857Z,23.16
2016-11-23T00:45:06.603Z,23.16
2016-11-23T00:46:06.248Z,23.16
2016-11-23T00:47:06.259Z,23.1
2016-11-23T00:48:06.623Z,23.05
2016-11-23T00:49:05.953Z,23.16
2016-11-23T00:50:06.275Z,23.15
2016-11-23T00:51:06.593Z,23.17
2016-11-23T00:52:06.672Z,23.15
2016-11-23T00:53:06.297Z,23.15
2016-11-23T00:54:06.614Z,23.15
2016-11-23T00:55:06.313Z,23.13
2016-11-23T00:56:06.717Z,23.15
2016-11-23T00:57:06.752Z,23.13
2016-11-23T00:58:06.430Z,23.16
2016-11-23T00:59:06.701Z,23.17
2016-11-23T01:00:06.349Z,23.13
2016-11-23T01:01:06.715Z,23.13
2016-11-23T01:02:06.096Z,23.15
2016-11-23T01:03:06.675Z,23.16
2016-11-23T01:04:06.062Z,23.16
2016-11-23T01:05:06.068Z,23.15
2016-11-23T01:06:06.385Z,23.15
2016-11-23T01:07:07.241Z,23.15
2016-11-23T01:08:06.136Z,23.16
2016-11-23T01:09:06.559Z,23.07
2016-11-23T01:10:06.415Z,23.17
2016-11-23T01:11:06.108Z,23.07
2016-11-23T01:12:06.118Z,23.15
2016-11-23T01:13:06.691Z,23.13
2016-11-23T01:14:06.490Z,23.12
2016-11-23T01:15:06.449Z,23.05
2016-11-23T01:16:06.458Z,23.16
2016-11-23T01:17:06.460Z,23.05
2016-11-23T01:18:07.298Z,23.07
2016-11-23T01:19:06.479Z,23.01
2016-11-23T01:20:06.947Z,22.97
2016-11-23T01:21:06.177Z,23.15
2016-11-23T01:22:06.508Z,23.16
2016-11-23T01:23:06.501Z,23.25
2016-11-23T01:24:06.512Z,23.16
2016-11-23T01:25:07.129Z,23.17
2016-11-23T01:26:07.184Z,23.15
2016-11-23T01:27:06.582Z,23.15
2016-11-23T01:28:06.229Z,23.17
2016-11-23T01:29:07.962Z,23.19
2016-11-23T01:30:06.555Z,23.17
2016-11-23T01:31:07.211Z,23.22
2016-11-23T01:32:06.886Z,23.16
2016-11-23T01:33:06.890Z,23.2
2016-11-23T01:34:06.581Z,23.16
2016-11-23T01:35:06.275Z,23.19
2016-11-23T01:36:06.593Z,23.17
2016-11-23T01:37:06.600Z,23.15
2016-11-23T01:38:06.921Z,23.16
2016-11-23T01:39:06.355Z,23.12
2016-11-23T01:40:06.624Z,23.19
2016-11-23T01:41:06.634Z,23.2
2016-11-23T01:42:07.788Z,23.19
2016-11-23T01:43:06.329Z,23.17
2016-11-23T01:44:07.066Z,23.23
2016-11-23T01:45:06.660Z,23.13
2016-11-23T01:46:06.669Z,23.15
2016-11-23T01:47:06.674Z,23.23
2016-11-23T01:48:06.992Z,23.22
2016-11-23T01:49:07.052Z,23.22
2016-11-23T01:50:06.743Z,23.17
2016-11-23T01:51:06.754Z,23.19
2016-11-23T01:52:06.707Z,23.23
2016-11-23T01:53:08.182Z,23.2
2016-11-23T01:54:06.722Z,23.2
2016-11-23T01:55:07.247Z,23.23
2016-11-23T01:56:06.789Z,23.17
2016-11-23T01:57:06.480Z,23.23
2016-11-23T01:58:06.751Z,23.2
2016-11-23T01:59:06.755Z,23.19
2016-11-23T02:00:07.077Z,23.2
2016-11-23T02:01:07.084Z,23.2
2016-11-23T02:02:07.091Z,23.16
2016-11-23T02:03:06.784Z,23.19
2016-11-23T02:04:08.565Z,23.19
2016-11-23T02:05:06.540Z,23.13
2016-11-23T02:06:06.542Z,23.27
2016-11-23T02:07:06.817Z,23.16
2016-11-23T02:08:06.924Z,23.19
2016-11-23T02:09:07.144Z,23.17
2016-11-23T02:10:06.836Z,23.19
2016-11-23T02:11:06.855Z,23.15
2016-11-23T02:12:07.160Z,23.27
2016-11-23T02:13:07.172Z,23.16
2016-11-23T02:14:07.184Z,23.19
2016-11-23T02:15:08.740Z,23.17
2016-11-23T02:16:06.925Z,23.19
2016-11-23T02:17:07.202Z,23.12
2016-11-23T02:18:06.894Z,23.16
2016-11-23T02:19:06.903Z,23.13
2016-11-23T02:20:07.220Z,23.17
2016-11-23T02:21:07.278Z,23.15
2016-11-23T02:22:06.970Z,23.19
2016-11-23T02:23:06.611Z,23.25
2016-11-23T02:24:07.039Z,23.16
2016-11-23T02:25:07.253Z,23.13
2016-11-23T02:26:07.001Z,23.17
2016-11-23T02:27:06.673Z,23.27
2016-11-23T02:28:07.275Z,23.22
2016-11-23T02:29:07.020Z,23.23
2016-11-23T02:30:07.292Z,23.28
2016-11-23T02:31:06.987Z,23.2
2016-11-23T02:32:06.990Z,23.22
2016-11-23T02:33:07.311Z,23.22
2016-11-23T02:34:07.039Z,23.17
2016-11-23T02:35:07.561Z,23.15
2016-11-23T02:36:07.330Z,23.19
2016-11-23T02:37:07.372Z,23.23
2016-11-23T02:38:07.031Z,23.28
2016-11-23T02:39:07.369Z,23.36
2016-11-23T02:40:07.049Z,23.32
2016-11-23T02:41:07.061Z,23.32
2016-11-23T02:42:06.827Z,23.33
2016-11-23T02:43:06.785Z,23.31
2016-11-23T02:44:09.440Z,23.31
2016-11-23T02:45:07.085Z,23.31
2016-11-23T02:46:07.630Z,23.22
2016-11-23T02:47:06.783Z,23.31
2016-11-23T02:48:07.466Z,23.16
2016-11-23T02:49:07.425Z,23.28
2016-11-23T02:50:07.117Z,23.25
2016-11-23T02:51:07.488Z,23.31
2016-11-23T02:52:07.444Z,23.31
2016-11-23T02:53:07.135Z,23.32
2016-11-23T02:54:07.146Z,23.35
2016-11-23T02:55:07.469Z,23.25
2016-11-23T02:56:07.158Z,23.32
2016-11-23T02:57:08.079Z,23.36
2016-11-23T02:58:06.860Z,23.22
2016-11-23T02:59:07.493Z,23.23
2016-11-23T03:00:07.508Z,23.33
2016-11-23T03:01:07.513Z,23.32
2016-11-23T03:02:06.910Z,23.27
2016-11-23T03:03:07.522Z,23.36
2016-11-23T03:04:06.904Z,23.23
2016-11-23T03:05:07.587Z,23.36
2016-11-23T03:06:06.924Z,23.32
2016-11-23T03:07:07.238Z,23.28
2016-11-23T03:08:08.633Z,23.33
2016-11-23T03:09:07.302Z,23.33
2016-11-23T03:10:07.877Z,23.35
2016-11-23T03:11:07.322Z,23.35
2016-11-23T03:12:07.687Z,23.36
2016-11-23T03:13:07.594Z,23.25
2016-11-23T03:14:07.343Z,23.35
2016-11-23T03:15:07.292Z,23.36
2016-11-23T03:16:07.612Z,23.32
2016-11-23T03:17:07.623Z,23.32
2016-11-23T03:18:07.627Z,23.32
2016-11-23T03:19:09.038Z,23.33
2016-11-23T03:20:07.646Z,23.32
2016-11-23T03:21:08.250Z,23.32
2016-11-23T03:22:07.708Z,23.36
2016-11-23T03:23:07.665Z,23.33
2016-11-23T03:24:07.047Z,23.28
2016-11-23T03:25:07.415Z,23.25
2016-11-23T03:26:07.375Z,23.32
2016-11-23T03:27:07.428Z,23.31
2016-11-23T03:28:07.699Z,23.33
2016-11-23T03:29:07.706Z,23.28
2016-11-23T03:30:07.402Z,23.31
2016-11-23T03:31:07.718Z,23.27
2016-11-23T03:32:07.101Z,23.35
2016-11-23T03:33:07.733Z,23.36
2016-11-23T03:34:07.428Z,23.27
2016-11-23T03:35:07.433Z,23.32
2016-11-23T03:36:07.755Z,23.2
2016-11-23T03:37:07.768Z,23.25
2016-11-23T03:38:07.766Z,23.22
2016-11-23T03:39:07.783Z,23.32
2016-11-23T03:40:07.258Z,23.33
2016-11-23T03:41:07.843Z,23.33
2016-11-23T03:42:07.795Z,23.22
2016-11-23T03:43:08.852Z,23.17
2016-11-23T03:44:07.499Z,23.28
2016-11-23T03:45:07.536Z,23.2
2016-11-23T03:46:07.826Z,23.2
2016-11-23T03:47:07.521Z,23.19
2016-11-23T03:48:07.214Z,23.32
2016-11-23T03:49:07.531Z,23.33
2016-11-23T03:50:07.543Z,23.17
2016-11-23T03:51:07.858Z,23.28
2016-11-23T03:52:07.553Z,23.28
2016-11-23T03:53:07.873Z,23.33
2016-11-23T03:54:08.689Z,23.32
2016-11-23T03:55:07.261Z,23.33
2016-11-23T03:56:07.582Z,23.22
2016-11-23T03:57:07.588Z,23.28
2016-11-23T03:58:07.604Z,23.31
2016-11-23T03:59:07.342Z,23.31
2016-11-23T04:00:07.664Z,23.25
2016-11-23T04:01:07.622Z,23.32
2016-11-23T04:02:07.624Z,23.32
2016-11-23T04:03:07.945Z,23.31
2016-11-23T04:04:07.640Z,23.35
2016-11-23T04:05:09.232Z,23.36
2016-11-23T04:06:07.655Z,23.27
2016-11-23T04:07:07.663Z,23.33
2016-11-23T04:08:07.977Z,23.35
2016-11-23T04:09:07.673Z,23.36
2016-11-23T04:10:07.990Z,23.33
2016-11-23T04:11:07.746Z,23.38
2016-11-23T04:12:07.477Z,23.33
2016-11-23T04:13:07.701Z,23.32
2016-11-23T04:14:07.922Z,23.27
2016-11-23T04:15:07.761Z,23.28
2016-11-23T04:16:07.558Z,23.35
2016-11-23T04:17:08.041Z,23.27
2016-11-23T04:18:08.049Z,23.32
2016-11-23T04:19:07.427Z,23.32
2016-11-23T04:20:07.748Z,23.35
2016-11-23T04:21:08.068Z,23.31
2016-11-23T04:22:07.772Z,23.32
2016-11-23T04:23:07.768Z,23.32
2016-11-23T04:24:08.692Z,23.31
2016-11-23T04:25:08.780Z,23.31
2016-11-23T04:26:07.788Z,23.28
2016-11-23T04:27:08.134Z,23.35
2016-11-23T04:28:07.803Z,23.33
2016-11-23T04:29:08.119Z,23.35
2016-11-23T04:30:07.867Z,23.32
2016-11-23T04:31:08.184Z,23.39
2016-11-23T04:32:07.830Z,23.31
2016-11-23T04:33:08.153Z,23.32
2016-11-23T04:34:07.870Z,23.31
2016-11-23T04:35:07.898Z,23.32
2016-11-23T04:36:08.707Z,23.32
2016-11-23T04:37:07.557Z,23.35
2016-11-23T04:38:08.513Z,23.31
2016-11-23T04:39:07.926Z,23.36
2016-11-23T04:40:07.887Z,23.38
2016-11-23T04:41:07.581Z,23.38
2016-11-23T04:42:07.900Z,23.32
2016-11-23T04:43:08.265Z,23.35
2016-11-23T04:44:07.917Z,23.35
2016-11-23T04:45:07.658Z,23.42
2016-11-23T04:46:08.236Z,23.35
2016-11-23T04:47:09.143Z,23.39
2016-11-23T04:48:07.633Z,23.4
2016-11-23T04:49:08.947Z,23.36
2016-11-23T04:50:08.317Z,23.36
2016-11-23T04:51:07.966Z,23.38
2016-11-23T04:52:07.655Z,23.36
2016-11-23T04:53:08.022Z,23.42
2016-11-23T04:54:08.293Z,23.39
2016-11-23T04:55:08.301Z,23.4
2016-11-23T04:56:08.311Z,23.38
2016-11-23T04:57:08.315Z,23.46
2016-11-23T04:58:09.347Z,23.39
2016-11-23T04:59:07.705Z,23.5
2016-11-23T05:00:09.392Z,23.53
2016-11-23T05:01:08.030Z,23.51
2016-11-23T05:02:08.041Z,23.48
2016-11-23T05:03:08.094Z,23.58
2016-11-23T05:04:08.361Z,23.54
2016-11-23T05:05:08.059Z,23.57
2016-11-23T05:06:08.065Z,23.58
2016-11-23T05:07:08.393Z,23.54
2016-11-23T05:08:07.761Z,23.61
2016-11-23T05:09:08.086Z,23.58
2016-11-23T05:10:08.410Z,23.6
2016-11-23T05:11:09.750Z,23.66
2016-11-23T05:12:08.102Z,23.58
2016-11-23T05:13:07.804Z,23.69
2016-11-23T05:14:08.482Z,23.66
2016-11-23T05:15:08.489Z,23.61
2016-11-23T05:16:08.134Z,23.58
2016-11-23T05:17:08.145Z,23.55
2016-11-23T05:18:08.152Z,23.63
2016-11-23T05:19:08.153Z,23.58
2016-11-23T05:20:08.163Z,23.63
2016-11-23T05:21:08.481Z,23.6
2016-11-23T05:22:08.177Z,23.68
2016-11-23T05:23:08.495Z,23.6
2016-11-23T05:24:08.500Z,23.65
2016-11-23T05:25:08.198Z,23.63
2016-11-23T05:26:08.200Z,23.6
2016-11-23T05:27:08.577Z,23.58
2016-11-23T05:28:08.214Z,23.68
2016-11-23T05:29:08.225Z,23.65
2016-11-23T05:30:08.543Z,23.66
2016-11-23T05:31:08.687Z,23.6
2016-11-23T05:32:08.244Z,23.61
2016-11-23T05:33:07.941Z,23.61
2016-11-23T05:34:08.258Z,23.55
2016-11-23T05:35:08.318Z,23.51
2016-11-23T05:36:08.584Z,23.6
2016-11-23T05:37:08.332Z,23.65
2016-11-23T05:38:07.969Z,23.57
2016-11-23T05:39:08.294Z,23.6
2016-11-23T05:40:08.300Z,23.57
2016-11-23T05:41:08.918Z,23.54
2016-11-23T05:42:08.920Z,23.57
2016-11-23T05:43:08.319Z,23.54
2016-11-23T05:44:08.378Z,23.5
2016-11-23T05:45:08.336Z,23.53
2016-11-23T05:46:08.028Z,23.51
2016-11-23T05:47:08.661Z,23.46
2016-11-23T05:48:08.967Z,23.53
2016-11-23T05:49:08.675Z,23.42
2016-11-23T05:50:08.729Z,23.4
2016-11-23T05:51:08.689Z,23.39
2016-11-23T05:52:08.429Z,23.39
2016-11-23T05:53:09.826Z,23.4
2016-11-23T05:54:08.393Z,23.43
2016-11-23T05:55:08.750Z,23.42
2016-11-23T05:56:08.096Z,23.42
2016-11-23T05:57:08.416Z,23.4
2016-11-23T05:58:08.426Z,23.42
2016-11-23T05:59:08.427Z,23.39
2016-11-23T06:00:08.485Z,23.46
2016-11-23T06:01:08.753Z,23.38
2016-11-23T06:02:08.188Z,23.4
2016-11-23T06:03:08.818Z,23.43
2016-11-23T06:04:10.001Z,23.39
2016-11-23T06:05:08.160Z,23.47
2016-11-23T06:06:09.340Z,23.46
2016-11-23T06:07:09.096Z,23.42
2016-11-23T06:08:08.492Z,23.42
2016-11-23T06:09:08.814Z,23.39
2016-11-23T06:10:08.816Z,23.38
2016-11-23T06:11:08.515Z,23.35
2016-11-23T06:12:08.526Z,23.38
2016-11-23T06:13:08.574Z,23.38
2016-11-23T06:14:08.216Z,23.47
2016-11-23T06:15:08.229Z,23.42
2016-11-23T06:16:08.908Z,23.42
2016-11-23T06:17:09.708Z,23.39
2016-11-23T06:18:08.918Z,23.47
2016-11-23T06:19:08.566Z,23.39
2016-11-23T06:20:08.933Z,23.42
2016-11-23T06:21:08.265Z,23.46
2016-11-23T06:22:08.637Z,23.38
2016-11-23T06:23:08.906Z,23.46
2016-11-23T06:24:08.959Z,23.47
2016-11-23T06:25:08.653Z,23.42
2016-11-23T06:26:08.295Z,23.38
2016-11-23T06:27:08.670Z,23.46
2016-11-23T06:28:09.779Z,23.4
2016-11-23T06:29:08.635Z,23.42
2016-11-23T06:30:08.640Z,23.4
2016-11-23T06:31:08.650Z,23.5
2016-11-23T06:32:08.657Z,23.47
2016-11-23T06:33:08.349Z,23.5
2016-11-23T06:34:08.403Z,23.55
2016-11-23T06:35:09.080Z,23.53
2016-11-23T06:36:08.679Z,23.51
2016-11-23T06:37:08.688Z,23.51
2016-11-23T06:38:08.432Z,23.48
2016-11-23T06:39:08.700Z,23.51
2016-11-23T06:40:09.623Z,23.55
2016-11-23T06:41:08.716Z,23.54
2016-11-23T06:42:08.775Z,23.53
2016-11-23T06:43:08.727Z,23.58
2016-11-23T06:44:23.302Z,23.51
2016-11-23T06:45:08.743Z,23.55
2016-11-23T06:46:09.449Z,23.58
2016-11-23T06:47:08.779Z,23.61
2016-11-23T06:48:09.081Z,23.61
2016-11-23T06:49:09.092Z,23.57
2016-11-23T06:50:08.776Z,23.61
2016-11-23T06:51:08.841Z,23.57
2016-11-23T06:52:09.102Z,23.57
2016-11-23T06:53:08.486Z,23.68
2016-11-23T06:54:08.908Z,23.61
2016-11-23T06:55:08.821Z,23.65
2016-11-23T06:56:08.821Z,23.66
2016-11-23T06:57:09.988Z,23.57
2016-11-23T06:58:08.835Z,23.57
2016-11-23T06:59:09.041Z,23.57
2016-11-23T07:00:09.160Z,23.76
2016-11-23T07:01:09.222Z,23.57
2016-11-23T07:02:08.909Z,23.61
2016-11-23T07:03:08.869Z,23.53
2016-11-23T07:04:09.188Z,23.69
2016-11-23T07:05:08.936Z,23.61
2016-11-23T07:06:08.577Z,23.58
2016-11-23T07:07:08.631Z,23.66
2016-11-23T07:08:10.071Z,23.66
2016-11-23T07:09:09.222Z,23.79
2016-11-23T07:10:09.454Z,23.6
2016-11-23T07:11:08.972Z,23.72
2016-11-23T07:12:09.013Z,23.72
2016-11-23T07:13:08.986Z,23.69
2016-11-23T07:14:38.384Z,23.63
2016-11-23T07:15:08.947Z,23.76
2016-11-23T07:16:09.270Z,23.61
2016-11-23T07:17:09.328Z,23.57
2016-11-23T07:18:08.708Z,23.68
2016-11-23T07:19:08.978Z,23.66
2016-11-23T07:20:09.293Z,23.8
2016-11-23T07:21:09.892Z,23.7
2016-11-23T07:22:08.739Z,23.66
2016-11-23T07:23:09.665Z,23.63
2016-11-23T07:24:08.694Z,23.61
2016-11-23T07:25:09.332Z,23.72
2016-11-23T07:26:09.092Z,23.7
2016-11-23T07:27:09.348Z,23.8
2016-11-23T07:28:09.035Z,23.93
2016-11-23T07:29:09.123Z,24
2016-11-23T07:30:08.743Z,24.12
2016-11-23T07:31:09.121Z,24.34
2016-11-23T07:32:10.172Z,24.47
2016-11-23T07:33:09.385Z,24.57
2016-11-23T07:34:08.763Z,24.81
2016-11-23T07:35:08.773Z,24.96
2016-11-23T07:36:09.093Z,25.05
2016-11-23T07:37:09.410Z,25.13
2016-11-23T07:38:09.418Z,25.33
2016-11-23T07:39:09.471Z,25.46
2016-11-23T07:40:08.805Z,25.58
2016-11-23T07:41:09.337Z,25.7
2016-11-23T07:42:09.128Z,25.76
2016-11-23T07:43:09.189Z,25.9
2016-11-23T07:44:09.516Z,25.9
2016-11-23T07:45:10.567Z,26.01
2016-11-23T07:46:09.161Z,26.1
2016-11-23T07:47:09.866Z,26.3
2016-11-23T07:48:09.223Z,26.4
2016-11-23T07:49:09.184Z,26.48
2016-11-23T07:50:09.188Z,26.5
2016-11-23T07:51:09.229Z,26.48
2016-11-23T07:52:09.848Z,26.52
2016-11-23T07:53:09.206Z,26.63
2016-11-23T07:54:09.297Z,26.63
2016-11-23T07:55:09.536Z,26.69
2016-11-23T07:56:08.918Z,26.73
2016-11-23T07:57:09.286Z,26.72
2016-11-23T07:58:08.928Z,26.87
2016-11-23T07:59:09.298Z,26.92
2016-11-23T08:00:09.571Z,26.91
2016-11-23T08:01:09.001Z,26.92
2016-11-23T08:02:09.274Z,26.94
2016-11-23T08:03:10.140Z,27.03
2016-11-23T08:04:09.596Z,27.03
2016-11-23T08:05:09.654Z,27.07
2016-11-23T08:06:08.985Z,27.04
2016-11-23T08:07:09.305Z,27.09
2016-11-23T08:08:09.080Z,27.09
2016-11-23T08:09:09.632Z,27.03
2016-11-23T08:10:09.332Z,27.1
2016-11-23T08:11:09.330Z,27.09
2016-11-23T08:12:09.391Z,27.12
2016-11-23T08:13:09.038Z,27.07
2016-11-23T08:14:23.921Z,27.09
2016-11-23T08:15:09.414Z,27.1
2016-11-23T08:16:09.919Z,27.19
2016-11-23T08:17:09.378Z,27.14
2016-11-23T08:18:09.697Z,27.09
2016-11-23T08:19:09.707Z,27.18
2016-11-23T08:20:09.752Z,27.09
2016-11-23T08:21:09.723Z,27.1
2016-11-23T08:22:09.102Z,27.12
2016-11-23T08:23:09.110Z,27.14
2016-11-23T08:24:09.429Z,27.1
2016-11-23T08:25:10.903Z,27.06
2016-11-23T08:26:09.495Z,27.13
2016-11-23T08:27:10.296Z,27.22
2016-11-23T08:28:09.536Z,27.1
2016-11-23T08:29:09.154Z,27.1
2016-11-23T08:30:09.797Z,27.12
2016-11-23T08:31:09.794Z,27.09
2016-11-23T08:32:09.804Z,27.03
2016-11-23T08:33:09.185Z,27.06
2016-11-23T08:34:09.555Z,27.12
2016-11-23T08:35:09.515Z,27.07
2016-11-23T08:36:09.519Z,27.03
2016-11-23T08:37:09.840Z,27.07
2016-11-23T08:38:10.900Z,27.12
2016-11-23T08:39:09.235Z,27.1
2016-11-23T08:40:09.573Z,27.02
2016-11-23T08:41:09.870Z,27.03
2016-11-23T08:42:09.882Z,27
2016-11-23T08:43:09.884Z,27.09
2016-11-23T08:44:09.631Z,27.04
2016-11-23T08:45:09.589Z,27.07
2016-11-23T08:46:09.387Z,27.03
2016-11-23T08:47:09.914Z,27.02
2016-11-23T08:48:09.609Z,27
2016-11-23T08:49:11.219Z,27.02
2016-11-23T08:50:09.942Z,27.04
2016-11-23T08:51:09.631Z,26.99
2016-11-23T08:52:09.640Z,27.03
2016-11-23T08:53:09.962Z,27.09
2016-11-23T08:54:09.705Z,27.1
2016-11-23T08:55:09.665Z,27.1
2016-11-23T08:56:09.670Z,27.04
2016-11-23T08:57:09.989Z,26.92
2016-11-23T08:58:09.786Z,26.99
2016-11-23T08:59:10.004Z,27
2016-11-23T09:00:11.620Z,26.92
2016-11-23T09:01:09.707Z,26.92
2016-11-23T09:02:09.404Z,27.02
2016-11-23T09:03:10.093Z,26.95
2016-11-23T09:04:09.727Z,27.02
2016-11-23T09:05:09.739Z,26.94
2016-11-23T09:06:10.059Z,26.94
2016-11-23T09:07:09.808Z,26.95
2016-11-23T09:08:09.761Z,26.97
2016-11-23T09:09:10.068Z,27.06
2016-11-23T09:10:09.513Z,27
2016-11-23T09:11:09.473Z,26.99
2016-11-23T09:12:09.478Z,27.03
2016-11-23T09:13:10.165Z,27.09
2016-11-23T09:14:10.118Z,26.95
2016-11-23T09:15:09.553Z,27.04
2016-11-23T09:16:09.871Z,27.06
2016-11-23T09:17:10.143Z,27.03
2016-11-23T09:18:09.837Z,27
2016-11-23T09:19:10.607Z,27.12
2016-11-23T09:20:10.636Z,27.09
2016-11-23T09:21:10.174Z,26.99
2016-11-23T09:22:09.917Z,26.94
2016-11-23T09:23:10.187Z,26.92
2016-11-23T09:24:09.880Z,26.92
2016-11-23T09:25:09.889Z,27.07
2016-11-23T09:26:09.897Z,27.07
2016-11-23T09:27:09.591Z,27.02
2016-11-23T09:28:10.225Z,27.13
2016-11-23T09:29:10.245Z,27.06
2016-11-23T09:30:09.618Z,27.12
2016-11-23T09:31:10.970Z,27.09
2016-11-23T09:32:10.251Z,27.04
2016-11-23T09:33:10.260Z,27.06
2016-11-23T09:34:09.641Z,27.09
2016-11-23T09:35:10.278Z,27.17
2016-11-23T09:36:09.666Z,27.1
2016-11-23T09:37:09.980Z,27.13
2016-11-23T09:38:09.988Z,27.1
2016-11-23T09:39:10.358Z,27.07
2016-11-23T09:40:10.006Z,27.07
2016-11-23T09:41:10.330Z,27.18
2016-11-23T09:42:11.321Z,27.12
2016-11-23T09:43:10.031Z,27.13
2016-11-23T09:44:10.391Z,27.09
2016-11-23T09:45:09.734Z,27.21
2016-11-23T09:46:10.101Z,27.18
2016-11-23T09:47:10.114Z,27.14
2016-11-23T09:48:09.780Z,27.1
2016-11-23T09:49:09.759Z,27.18
2016-11-23T09:50:09.771Z,27.1
2016-11-23T09:51:10.406Z,27.06
2016-11-23T09:52:09.787Z,27.1
2016-11-23T09:53:09.795Z,27.1
2016-11-23T09:54:10.112Z,27.22
2016-11-23T09:55:11.288Z,27.19
2016-11-23T09:56:10.127Z,27.25
2016-11-23T09:57:10.454Z,27.14
2016-11-23T09:58:10.147Z,27.1
2016-11-23T09:59:10.154Z,27.14
2016-11-23T10:00:09.847Z,27.13
2016-11-23T10:01:10.168Z,27.12
2016-11-23T10:02:10.180Z,27.09
2016-11-23T10:03:10.494Z,27.09
2016-11-23T10:04:09.879Z,27.12
2016-11-23T10:05:10.508Z,27.07
2016-11-23T10:06:10.204Z,27.12
2016-11-23T10:07:10.533Z,27.13
2016-11-23T10:08:09.908Z,27.14
2016-11-23T10:09:10.234Z,27.17
2016-11-23T10:10:10.559Z,27.24
2016-11-23T10:11:10.343Z,27.14
2016-11-23T10:12:10.664Z,27.1
2016-11-23T10:13:10.263Z,27.17
2016-11-23T10:14:10.367Z,27.12
2016-11-23T10:15:10.276Z,27.21
2016-11-23T10:16:10.644Z,27.13
2016-11-23T10:17:10.288Z,27.1
2016-11-23T10:18:10.298Z,27.06
2016-11-23T10:19:10.308Z,27.12
2016-11-23T10:20:10.315Z,27.09
2016-11-23T10:21:10.636Z,27.02
2016-11-23T10:22:10.689Z,27.09
2016-11-23T10:23:10.704Z,27.04
2016-11-23T10:24:10.660Z,27.03
2016-11-23T10:25:10.665Z,27.02
2016-11-23T10:26:10.846Z,27.04
2016-11-23T10:27:10.367Z,27
2016-11-23T10:28:10.697Z,27.03
2016-11-23T10:29:10.382Z,26.97
2016-11-23T10:30:10.756Z,26.92
2016-11-23T10:31:10.448Z,26.84
2016-11-23T10:32:10.296Z,26.89
2016-11-23T10:33:10.111Z,26.87
2016-11-23T10:34:10.421Z,26.82
2016-11-23T10:35:10.445Z,26.82
2016-11-23T10:36:10.762Z,26.84
2016-11-23T10:37:11.909Z,26.81
2016-11-23T10:38:10.451Z,26.84
2016-11-23T10:39:11.251Z,26.89
2016-11-23T10:40:10.208Z,26.85
2016-11-23T10:41:10.477Z,26.87
2016-11-23T10:42:10.801Z,26.82
2016-11-23T10:43:10.491Z,26.84
2016-11-23T10:44:10.496Z,26.92
2016-11-23T10:45:10.198Z,26.85
2016-11-23T10:46:10.829Z,26.8
2016-11-23T10:47:10.835Z,26.85
2016-11-23T10:48:10.585Z,26.8
2016-11-23T10:49:10.899Z,26.77
2016-11-23T10:50:11.797Z,26.8
2016-11-23T10:51:10.556Z,26.8
2016-11-23T10:52:10.558Z,26.87
2016-11-23T10:53:10.254Z,26.84
2016-11-23T10:54:10.581Z,26.84
2016-11-23T10:55:10.591Z,26.85
2016-11-23T10:56:10.275Z,26.76
2016-11-23T10:57:10.912Z,26.77
2016-11-23T10:58:10.916Z,26.69
2016-11-23T10:59:10.929Z,26.6
2016-11-23T11:00:10.932Z,26.75
2016-11-23T11:01:12.244Z,26.84
2016-11-23T11:02:10.690Z,26.8
2016-11-23T11:03:10.694Z,26.77
2016-11-23T11:04:10.706Z,26.7
2016-11-23T11:05:10.973Z,26.72
2016-11-23T11:06:10.406Z,26.63
2016-11-23T11:07:10.672Z,26.73
2016-11-23T11:08:10.370Z,26.67
2016-11-23T11:09:11.052Z,26.63
2016-11-23T11:10:11.009Z,26.67
2016-11-23T11:11:10.756Z,26.67
2016-11-23T11:12:10.401Z,26.67
2016-11-23T11:13:10.722Z,26.76
2016-11-23T11:14:10.837Z,26.66
2016-11-23T11:15:10.742Z,26.7
2016-11-23T11:16:11.070Z,26.69
2016-11-23T11:17:10.487Z,26.67
2016-11-23T11:18:10.760Z,26.73
2016-11-23T11:19:10.815Z,26.75
2016-11-23T11:20:10.465Z,26.72
2016-11-23T11:21:11.332Z,26.73
2016-11-23T11:22:10.794Z,26.7
2016-11-23T11:23:10.806Z,26.72
2016-11-23T11:24:10.807Z,26.72
2016-11-23T11:25:11.124Z,26.69
2016-11-23T11:26:10.511Z,26.77
2016-11-23T11:27:10.514Z,26.72
2016-11-23T11:28:11.157Z,26.67
2016-11-23T11:29:10.846Z,26.66
2016-11-23T11:30:10.540Z,26.7
2016-11-23T11:31:11.220Z,26.7
2016-11-23T11:32:11.757Z,26.65
2016-11-23T11:33:11.238Z,26.69
2016-11-23T11:34:10.945Z,26.63
2016-11-23T11:35:10.576Z,26.69
2016-11-23T11:36:11.207Z,26.65
2016-11-23T11:37:10.909Z,26.52
2016-11-23T11:38:10.913Z,26.57
2016-11-23T11:39:11.231Z,26.52
2016-11-23T11:40:10.927Z,26.52
2016-11-23T11:41:10.933Z,26.54
2016-11-23T11:42:10.989Z,26.6
2016-11-23T11:43:12.039Z,26.6
2016-11-23T11:44:10.958Z,26.67
2016-11-23T11:45:11.279Z,26.65
2016-11-23T11:46:14.368Z,26.51
2016-11-23T11:47:11.292Z,26.54
2016-11-23T11:48:10.988Z,26.51
2016-11-23T11:49:11.313Z,26.52
2016-11-23T11:50:11.003Z,26.58
2016-11-23T11:51:11.377Z,26.57
2016-11-23T11:52:11.051Z,26.54
2016-11-23T11:53:11.028Z,26.69
2016-11-23T11:54:12.536Z,26.69
2016-11-23T11:55:11.038Z,26.69
2016-11-23T11:56:19.727Z,26.69
2016-11-23T11:57:11.370Z,26.66
2016-11-23T11:58:11.066Z,26.69
2016-11-23T11:59:10.763Z,26.51
2016-11-23T12:00:11.442Z,26.65
2016-11-23T12:01:11.402Z,26.55
2016-11-23T12:02:10.829Z,26.54
2016-11-23T12:03:11.138Z,26.54
2016-11-23T12:04:10.809Z,26.45
2016-11-23T12:05:13.044Z,26.54
2016-11-23T12:06:11.547Z,26.57
2016-11-23T12:07:12.280Z,26.58
2016-11-23T12:08:10.823Z,26.52
2016-11-23T12:09:11.559Z,26.66
2016-11-23T12:10:10.842Z,26.62
2016-11-23T12:11:10.848Z,26.47
2016-11-23T12:12:11.169Z,26.6
2016-11-23T12:13:11.490Z,26.51
2016-11-23T12:14:11.283Z,26.57
2016-11-23T12:15:11.502Z,26.63
2016-11-23T12:16:11.512Z,26.52
2016-11-23T12:17:11.205Z,26.6
2016-11-23T12:18:12.447Z,26.63
2016-11-23T12:19:11.585Z,26.48
2016-11-23T12:20:11.542Z,26.54
2016-11-23T12:21:11.239Z,26.55
2016-11-23T12:22:10.948Z,26.54
2016-11-23T12:23:11.618Z,26.6
2016-11-23T12:24:11.923Z,26.52
2016-11-23T12:25:12.077Z,26.51
2016-11-23T12:26:11.273Z,26.54
2016-11-23T12:27:11.594Z,26.52
2016-11-23T12:28:11.601Z,26.55
2016-11-23T12:29:10.983Z,26.62
2016-11-23T12:30:10.990Z,26.52
2016-11-23T12:31:11.310Z,26.69
2016-11-23T12:32:11.318Z,26.63
2016-11-23T12:33:11.327Z,26.67
2016-11-23T12:34:11.335Z,26.73
2016-11-23T12:35:11.342Z,26.63
2016-11-23T12:36:12.616Z,26.69
2016-11-23T12:37:11.671Z,26.69
2016-11-23T12:38:11.857Z,26.65
2016-11-23T12:39:11.687Z,26.67
2016-11-23T12:40:11.607Z,26.69
2016-11-23T12:41:11.392Z,26.76
2016-11-23T12:42:11.398Z,26.69
2016-11-23T12:43:11.837Z,26.69
2016-11-23T12:44:11.410Z,26.65
2016-11-23T12:45:11.160Z,26.66
2016-11-23T12:46:11.113Z,26.66
2016-11-23T12:47:12.411Z,26.77
2016-11-23T12:48:11.755Z,26.7
2016-11-23T12:49:12.422Z,26.69
2016-11-23T12:50:11.820Z,26.69
2016-11-23T12:51:12.281Z,26.67
2016-11-23T12:52:11.783Z,26.7
2016-11-23T12:53:11.214Z,26.84
2016-11-23T12:54:11.518Z,26.8
2016-11-23T12:55:11.813Z,26.81
2016-11-23T12:56:11.189Z,26.88
2016-11-23T12:57:11.512Z,26.87
2016-11-23T12:58:11.771Z,26.82